createdAt,value
2024-01-05T00:02:14.793Z,17.00
2024-01-05T00:04:42.956Z,18.00
2024-01-05T00:07:12.334Z,19.00
2024-01-05T00:12:08.685Z,15.00
2024-01-05T00:14:39.768Z,16.00
2024-01-05T00:17:07.958Z,15.00
2024-01-05T00:19:36.249Z,16.00
2024-01-05T00:22:04.725Z,15.00
2024-01-05T00:24:33.102Z,15.50
2024-01-05T00:27:01.510Z,15.00
2024-01-05T00:29:30.478Z,14.00
2024-01-05T00:34:26.594Z,14.00
2024-01-05T00:36:54.766Z,17.00
2024-01-05T00:39:22.975Z,19.00
2024-01-05T00:41:51.093Z,18.00
2024-01-05T00:44:19.148Z,15.00
2024-01-05T00:46:47.439Z,14.00
2024-01-05T00:49:15.499Z,12.50
2024-01-05T00:51:43.589Z,10.50
2024-01-05T00:54:11.826Z,10.00
2024-01-05T00:56:41.056Z,7.00
2024-01-05T00:59:09.161Z,10.00
2024-01-05T01:01:37.343Z,12.50
2024-01-05T01:04:05.479Z,14.50
2024-01-05T01:06:33.556Z,14.67
2024-01-05T01:09:01.824Z,11.50
2024-01-05T01:13:57.971Z,15.00
2024-01-05T01:16:25.919Z,11.00
2024-01-05T01:21:23.246Z,14.00
2024-01-05T01:23:52.827Z,15.00
2024-01-05T01:26:20.902Z,11.00
2024-01-05T01:28:49.076Z,11.00
2024-01-05T01:31:17.107Z,18.00
2024-01-05T01:33:45.247Z,16.00
2024-01-05T01:36:13.564Z,14.50
2024-01-05T01:38:41.709Z,18.00
2024-01-05T01:41:09.791Z,17.00
2024-01-05T01:43:37.936Z,14.00
2024-01-05T01:48:34.558Z,17.00
2024-01-05T01:51:03.991Z,14.00
2024-01-05T01:53:32.121Z,21.50
2024-01-05T01:56:00.798Z,17.00
2024-01-05T01:58:29.078Z,13.00
2024-01-05T02:00:57.084Z,14.00
2024-01-05T02:03:25.346Z,14.00
2024-01-05T02:05:54.576Z,19.00
2024-01-05T02:10:50.607Z,15.00
2024-01-05T02:15:46.656Z,19.00
2024-01-05T02:18:15.999Z,20.00
2024-01-05T02:20:46.377Z,21.50
2024-01-05T02:23:25.793Z,18.50
2024-01-05T02:25:57.880Z,18.00
2024-01-05T02:28:26.334Z,19.00
2024-01-05T02:30:58.125Z,19.00
2024-01-05T02:33:26.409Z,16.00
2024-01-05T02:35:54.744Z,19.00
2024-01-05T02:38:22.857Z,19.00
2024-01-05T02:40:50.970Z,22.00
2024-01-05T02:43:19.006Z,22.00
2024-01-05T02:45:46.965Z,22.00
2024-01-05T02:53:11.366Z,20.50
2024-01-05T03:00:36.624Z,22.00
2024-01-05T03:03:06.429Z,21.00
2024-01-05T03:05:34.963Z,24.00
2024-01-05T03:08:04.438Z,20.00
2024-01-05T03:10:32.624Z,23.00
2024-01-05T03:13:00.726Z,19.00
2024-01-05T03:15:28.757Z,22.00
2024-01-05T03:17:57.067Z,24.00
2024-01-05T03:22:53.216Z,23.00
2024-01-05T03:25:21.237Z,21.00
2024-01-05T03:27:49.161Z,25.50
2024-01-05T03:30:17.472Z,19.00
2024-01-05T03:32:45.895Z,24.00
2024-01-05T03:35:14.122Z,25.00
2024-01-05T03:37:42.092Z,24.00
2024-01-05T03:40:10.386Z,23.00
2024-01-05T03:42:38.561Z,25.50
2024-01-05T03:45:07.403Z,27.50
2024-01-05T03:47:35.720Z,32.00
2024-01-05T03:50:04.435Z,33.00
2024-01-05T03:52:32.542Z,33.00
2024-01-05T03:55:02.665Z,32.00
2024-01-05T03:57:31.793Z,33.00
2024-01-05T04:00:01.259Z,27.00
2024-01-05T04:02:29.585Z,27.00
2024-01-05T04:04:57.787Z,31.00
2024-01-05T04:07:27.107Z,25.00
2024-01-05T04:09:55.137Z,22.00
2024-01-05T04:12:23.311Z,31.00
2024-01-05T04:14:51.679Z,33.50
2024-01-05T04:17:20.174Z,32.00
2024-01-05T04:19:48.686Z,37.00
2024-01-05T04:22:16.747Z,32.00
2024-01-05T04:24:44.757Z,28.50
2024-01-05T04:27:13.085Z,33.00
2024-01-05T04:29:41.232Z,33.00
2024-01-05T04:32:09.178Z,32.00
2024-01-05T04:34:37.363Z,31.00
2024-01-05T04:37:05.864Z,30.00
2024-01-05T04:39:34.447Z,31.00
2024-01-05T04:42:02.592Z,30.50
2024-01-05T04:46:58.654Z,26.00
2024-01-05T04:49:27.869Z,29.00
2024-01-05T04:51:56.362Z,31.00
2024-01-05T04:54:24.508Z,24.50
2024-01-05T04:59:22.028Z,28.00
2024-01-05T05:01:50.359Z,33.00
2024-01-05T05:06:49.215Z,29.00
2024-01-05T05:09:17.397Z,28.00
2024-01-05T05:11:45.777Z,32.00
2024-01-05T05:14:14.149Z,38.50
2024-01-05T05:16:42.228Z,38.00
2024-01-05T05:19:10.529Z,46.00
2024-01-05T05:21:38.766Z,39.00
2024-01-05T05:24:06.897Z,33.50
2024-01-05T05:26:34.880Z,37.00
2024-01-05T05:29:02.911Z,27.00
2024-01-05T05:31:31.139Z,30.50
2024-01-05T05:33:59.351Z,27.00
2024-01-05T05:36:58.761Z,28.50
2024-01-05T05:39:27.661Z,29.50
2024-01-05T05:42:55.706Z,30.00
2024-01-05T05:46:20.803Z,47.00
2024-01-05T05:49:58.872Z,47.00
2024-01-05T05:53:27.051Z,41.00
2024-01-05T05:56:58.369Z,31.00
2024-01-05T06:00:48.022Z,29.00
2024-01-05T06:04:38.628Z,30.00
2024-01-05T06:07:38.782Z,27.00
2024-01-05T06:10:45.937Z,27.00
2024-01-05T06:14:15.161Z,28.00
2024-01-05T06:17:47.073Z,48.00
2024-01-05T06:20:44.419Z,40.00
2024-01-05T06:23:29.079Z,40.00
2024-01-05T06:26:55.869Z,31.00
2024-01-05T06:29:46.757Z,34.00
2024-01-05T06:32:51.375Z,38.00
2024-01-05T06:36:02.870Z,42.00
2024-01-05T06:38:40.155Z,37.00
2024-01-05T06:41:17.603Z,38.00
2024-01-05T06:44:29.370Z,34.00
2024-01-05T06:48:03.841Z,38.00
2024-01-05T06:50:54.607Z,38.00
2024-01-05T06:53:30.179Z,36.00
2024-01-05T06:56:33.386Z,35.00
2024-01-05T06:59:17.177Z,32.00
2024-01-05T07:02:21.809Z,31.00
2024-01-05T07:05:14.548Z,31.00
2024-01-05T07:08:41.491Z,33.00
2024-01-05T07:12:21.877Z,34.50
2024-01-05T07:15:46.438Z,32.00
2024-01-05T07:18:50.202Z,32.00
2024-01-05T07:21:54.875Z,30.00
2024-01-05T07:24:31.865Z,28.00
2024-01-05T07:27:22.504Z,28.00
2024-01-05T07:30:15.146Z,22.00
2024-01-05T07:32:56.515Z,22.00
2024-01-05T07:36:00.286Z,24.00
2024-01-05T07:38:51.013Z,22.00
2024-01-05T07:41:33.358Z,17.00
2024-01-05T07:44:02.019Z,18.50
2024-01-05T07:46:42.609Z,17.67
2024-01-05T07:49:11.503Z,17.00
2024-01-05T07:51:46.426Z,18.00
2024-01-05T07:54:18.592Z,15.50
2024-01-05T07:56:47.173Z,19.00
2024-01-05T07:59:16.987Z,18.00
2024-01-05T08:01:45.866Z,15.00
2024-01-05T08:06:52.276Z,15.00
2024-01-05T08:09:23.788Z,15.00
2024-01-05T08:12:02.364Z,16.00
2024-01-05T08:14:31.903Z,14.00
2024-01-05T08:17:01.647Z,15.00
2024-01-05T08:20:18.814Z,15.00
2024-01-05T08:23:03.231Z,16.00
2024-01-05T08:25:33.676Z,15.00
2024-01-05T08:28:07.641Z,21.50
2024-01-05T08:30:45.428Z,18.00
2024-01-05T08:35:52.499Z,20.50
2024-01-05T08:38:23.021Z,20.00
2024-01-05T08:40:53.895Z,20.00
2024-01-05T08:45:54.075Z,22.00
2024-01-05T08:48:22.478Z,23.00
2024-01-05T08:50:53.948Z,25.00
2024-01-05T08:53:24.478Z,25.00
2024-01-05T08:55:52.882Z,17.50
2024-01-05T09:00:57.516Z,21.50
2024-01-05T09:03:26.164Z,26.00
2024-01-05T09:05:56.962Z,20.00
2024-01-05T09:08:28.129Z,22.50
2024-01-05T09:13:31.641Z,27.00
2024-01-05T09:16:05.576Z,22.00
2024-01-05T09:18:38.873Z,18.00
2024-01-05T09:21:11.907Z,14.50
2024-01-05T09:23:44.759Z,12.50
2024-01-05T09:26:16.063Z,14.00
2024-01-05T09:28:44.891Z,11.50
2024-01-05T09:31:21.403Z,13.00
2024-01-05T09:33:51.581Z,17.00
2024-01-05T09:36:26.010Z,13.00
2024-01-05T09:38:57.371Z,13.00
2024-01-05T09:41:35.790Z,17.50
2024-01-05T09:44:12.111Z,17.67
2024-01-05T09:46:46.308Z,16.00
2024-01-05T09:49:19.165Z,13.00
2024-01-05T09:51:54.368Z,15.00
2024-01-05T09:54:25.647Z,14.00
2024-01-05T09:57:13.403Z,13.00
2024-01-05T09:59:51.707Z,13.00
2024-01-05T10:02:37.616Z,13.00
2024-01-05T10:05:12.801Z,10.50
2024-01-05T10:10:18.737Z,14.00
2024-01-05T10:12:49.655Z,15.00
2024-01-05T10:15:17.948Z,10.50
2024-01-05T10:17:50.515Z,9.50
2024-01-05T10:20:22.977Z,8.50
2024-01-05T10:23:05.992Z,9.00
2024-01-05T10:31:44.673Z,11.00
2024-01-05T10:34:12.856Z,7.00
2024-01-05T10:36:41.274Z,7.00
2024-01-05T10:39:10.403Z,7.50
2024-01-05T10:44:07.594Z,8.50
2024-01-05T10:46:37.272Z,8.50
2024-01-05T10:49:06.206Z,9.00
2024-01-05T10:51:36.664Z,8.50
2024-01-05T10:54:05.067Z,9.00
2024-01-05T11:01:32.070Z,5.00
2024-01-05T11:04:02.890Z,4.00
2024-01-05T11:06:31.826Z,3.00
2024-01-05T11:09:11.903Z,1.00
2024-01-05T11:12:17.205Z,3.00
2024-01-05T11:15:15.263Z,5.00
2024-01-05T11:18:29.988Z,3.00
2024-01-05T11:21:07.468Z,3.00
2024-01-05T11:23:37.336Z,3.50
2024-01-05T11:26:05.622Z,2.00
2024-01-05T11:28:39.737Z,2.00
2024-01-05T11:31:08.124Z,2.00
2024-01-05T11:33:47.761Z,2.00
2024-01-05T11:36:50.334Z,4.00
2024-01-05T11:42:05.219Z,2.50
2024-01-05T11:44:37.046Z,2.00
2024-01-05T11:47:05.133Z,2.00
2024-01-05T11:49:38.527Z,2.00
2024-01-05T11:52:07.162Z,3.00
2024-01-05T11:54:35.576Z,2.00
2024-01-05T11:57:05.526Z,2.00
2024-01-05T11:59:33.594Z,6.00
2024-01-05T12:02:01.938Z,7.00
2024-01-05T12:04:45.210Z,2.00
2024-01-05T12:09:52.720Z,2.50
2024-01-05T12:12:21.068Z,3.00
2024-01-05T12:14:49.776Z,4.00
2024-01-05T12:17:17.794Z,7.00
2024-01-05T12:19:46.168Z,3.00
2024-01-05T12:22:14.310Z,2.00
2024-01-05T12:24:42.646Z,2.00
2024-01-05T12:27:10.652Z,1.00
2024-01-05T12:29:39.191Z,3.00
2024-01-05T12:32:09.084Z,3.00
2024-01-05T12:37:09.017Z,3.00
2024-01-05T12:39:37.483Z,2.00
2024-01-05T12:42:06.280Z,4.00
2024-01-05T12:44:35.040Z,7.00
2024-01-05T12:47:03.131Z,5.00
2024-01-05T12:49:36.507Z,3.00
2024-01-05T12:52:07.525Z,4.00
2024-01-05T12:54:42.655Z,12.00
2024-01-05T12:57:10.729Z,6.00
2024-01-05T12:59:38.912Z,8.00
2024-01-05T13:02:07.536Z,11.00
2024-01-05T13:04:40.442Z,5.00
2024-01-05T13:07:12.207Z,10.00
2024-01-05T13:09:40.921Z,6.00
2024-01-05T13:12:09.376Z,7.00
2024-01-05T13:14:37.594Z,7.00
2024-01-05T13:17:07.362Z,2.00
2024-01-05T13:19:37.895Z,4.00
2024-01-05T13:22:10.893Z,88.50
2024-01-05T13:24:44.197Z,50.50
2024-01-05T13:27:14.761Z,37.00
2024-01-05T13:29:43.157Z,35.00
2024-01-05T13:32:11.479Z,34.00
2024-01-05T13:37:07.762Z,28.00
2024-01-05T13:39:40.668Z,15.00
2024-01-05T13:42:10.691Z,24.00
2024-01-05T13:44:39.055Z,16.50
2024-01-05T13:47:07.125Z,16.00
2024-01-05T13:49:35.323Z,21.00
2024-01-05T13:52:04.552Z,16.00
2024-01-05T13:54:35.424Z,5.00
2024-01-05T13:57:04.340Z,11.00
2024-01-05T13:59:35.112Z,15.00
2024-01-05T14:02:04.078Z,14.00
2024-01-05T14:04:32.509Z,15.00
2024-01-05T14:07:01.521Z,16.00
2024-01-05T14:09:29.774Z,14.00
2024-01-05T14:11:58.097Z,15.00
2024-01-05T14:14:26.182Z,16.00
2024-01-05T14:16:54.358Z,20.67
2024-01-05T14:19:22.626Z,18.00
2024-01-05T14:21:50.776Z,20.00
2024-01-05T14:24:18.851Z,20.00
2024-01-05T14:26:48.876Z,16.50
2024-01-05T14:29:18.689Z,16.00
2024-01-05T14:31:47.235Z,15.00
2024-01-05T14:34:16.141Z,19.00
2024-01-05T14:36:44.385Z,21.00
2024-01-05T14:39:12.902Z,24.00
2024-01-05T14:41:40.953Z,31.50
2024-01-05T14:44:08.980Z,23.00
2024-01-05T14:46:37.386Z,24.00
2024-01-05T14:49:06.520Z,34.00
2024-01-05T14:51:34.995Z,32.00
2024-01-05T14:54:03.302Z,41.00
2024-01-05T14:56:31.787Z,33.00
2024-01-05T14:58:59.784Z,36.00
2024-01-05T15:01:28.053Z,41.00
2024-01-05T15:03:56.386Z,39.00
2024-01-05T15:11:21.492Z,28.00
2024-01-05T15:13:51.020Z,34.00
2024-01-05T15:16:19.365Z,35.00
2024-01-05T15:18:47.628Z,38.00
2024-01-05T15:21:26.551Z,39.00
2024-01-05T15:23:54.841Z,41.00
2024-01-05T15:26:22.893Z,76.50
2024-01-05T15:28:51.042Z,64.00
2024-01-05T15:31:22.471Z,24.00
2024-01-05T15:33:53.298Z,24.00
2024-01-05T15:36:25.303Z,59.50
2024-01-05T15:38:54.017Z,28.00
2024-01-05T15:41:22.165Z,28.00
2024-01-05T15:43:56.526Z,21.50
2024-01-05T15:46:28.117Z,23.00
2024-01-05T15:48:57.230Z,26.50
2024-01-05T15:51:30.737Z,27.00
2024-01-05T15:54:01.058Z,29.00
2024-01-05T15:56:29.917Z,35.00
2024-01-05T15:58:58.441Z,34.00
2024-01-05T16:01:26.683Z,30.00
2024-01-05T16:03:55.029Z,28.00
2024-01-05T16:06:23.274Z,27.00
2024-01-05T16:08:51.266Z,27.00
2024-01-05T16:11:19.373Z,75.50
2024-01-05T16:13:48.445Z,87.00
2024-01-05T16:16:20.295Z,88.00
2024-01-05T16:18:51.500Z,78.00
2024-01-05T16:21:22.720Z,87.00
2024-01-05T16:23:51.687Z,73.00
2024-01-05T16:26:20.587Z,81.00
2024-01-05T16:28:49.083Z,116.00
2024-01-05T16:31:18.426Z,126.00
2024-01-05T16:33:47.212Z,73.00
2024-01-05T16:38:45.747Z,54.00
2024-01-05T16:41:14.810Z,53.00
2024-01-05T16:43:42.846Z,56.00
2024-01-05T16:46:11.046Z,75.00
2024-01-05T16:48:39.304Z,49.00
2024-01-05T16:51:08.160Z,69.50
2024-01-05T16:53:36.376Z,50.00
2024-01-05T16:56:04.686Z,43.00
2024-01-05T16:58:32.745Z,42.00
2024-01-05T17:01:00.938Z,34.00
2024-01-05T17:03:29.190Z,39.50
2024-01-05T17:05:57.524Z,39.00
2024-01-05T17:08:25.671Z,37.00
2024-01-05T17:10:53.781Z,34.50
2024-01-05T17:13:21.904Z,43.00
2024-01-05T17:15:50.053Z,58.00
2024-01-05T17:18:19.961Z,76.50
2024-01-05T17:20:49.414Z,46.00
2024-01-05T17:23:17.595Z,40.00
2024-01-05T17:25:45.682Z,24.00
2024-01-05T17:28:13.816Z,13.00
2024-01-05T17:30:41.922Z,19.00
2024-01-05T17:33:09.979Z,18.50
2024-01-05T17:35:38.191Z,16.00
2024-01-05T17:38:06.322Z,21.50
2024-01-05T17:40:34.361Z,24.00
2024-01-05T17:43:02.562Z,25.00
2024-01-05T17:45:30.638Z,24.00
2024-01-05T17:47:58.919Z,22.00
2024-01-05T17:50:27.017Z,25.00
2024-01-05T17:52:55.301Z,24.00
2024-01-05T18:00:19.919Z,28.00
2024-01-05T18:02:48.014Z,31.50
2024-01-05T18:05:16.475Z,28.00
2024-01-05T18:07:44.825Z,29.50
2024-01-05T18:10:13.681Z,28.00
2024-01-05T18:12:44.109Z,25.00
2024-01-05T18:15:13.018Z,18.00
2024-01-05T18:17:41.311Z,22.00
2024-01-05T18:20:10.452Z,24.50
2024-01-05T18:22:38.734Z,20.00
2024-01-05T18:25:07.009Z,18.00
2024-01-05T18:27:35.006Z,21.00
2024-01-05T18:30:03.960Z,17.00
2024-01-05T18:32:32.219Z,17.00
2024-01-05T18:35:00.713Z,16.00
2024-01-05T18:37:29.399Z,18.00
2024-01-05T18:39:57.653Z,17.00
2024-01-05T18:44:53.885Z,20.50
2024-01-05T18:47:21.926Z,23.00
2024-01-05T18:49:50.000Z,24.00
2024-01-05T18:54:46.066Z,24.00
2024-01-05T18:57:15.907Z,23.00
2024-01-05T18:59:44.366Z,22.00
2024-01-05T19:04:41.044Z,21.00
2024-01-05T19:07:09.300Z,22.00
2024-01-05T19:09:38.627Z,21.00
2024-01-05T19:12:08.269Z,27.00
2024-01-05T19:14:37.616Z,24.00
2024-01-05T19:17:07.280Z,20.00
2024-01-05T19:19:39.554Z,21.00
2024-01-05T19:22:07.776Z,18.00
2024-01-05T19:24:35.867Z,20.00
2024-01-05T19:27:04.228Z,23.00
2024-01-05T19:29:32.457Z,24.50
2024-01-05T19:32:00.945Z,24.00
2024-01-05T19:34:29.134Z,23.00
2024-01-05T19:36:57.246Z,27.00
2024-01-05T19:39:26.073Z,29.50
2024-01-05T19:41:54.502Z,32.00
2024-01-05T19:44:22.713Z,25.00
2024-01-05T19:46:51.057Z,30.00
2024-01-05T19:49:20.298Z,34.50
2024-01-05T19:51:49.540Z,38.00
2024-01-05T19:54:19.726Z,38.00
2024-01-05T19:59:20.842Z,42.50
2024-01-05T20:04:19.032Z,41.00
2024-01-05T20:06:49.678Z,42.00
2024-01-05T20:11:47.718Z,45.00
2024-01-05T20:14:17.222Z,44.00
2024-01-05T20:16:48.197Z,44.00
2024-01-05T20:19:18.077Z,38.00
2024-01-05T20:24:22.495Z,30.00
2024-01-05T20:26:54.126Z,32.00
2024-01-05T20:29:22.433Z,27.00
2024-01-05T20:31:52.596Z,27.50
2024-01-05T20:34:21.235Z,29.00
2024-01-05T20:36:51.644Z,30.00
2024-01-05T20:39:22.121Z,30.00
2024-01-05T20:41:53.238Z,32.50
2024-01-05T20:46:51.597Z,31.00
2024-01-05T20:49:20.004Z,31.00
2024-01-05T20:51:48.514Z,29.00
2024-01-05T20:54:18.114Z,31.00
2024-01-05T20:56:46.214Z,30.00
2024-01-05T20:59:14.213Z,30.00
2024-01-05T21:01:44.084Z,32.50
2024-01-05T21:04:15.628Z,30.00
2024-01-05T21:06:45.789Z,30.00
2024-01-05T21:09:14.517Z,31.00
2024-01-05T21:11:42.597Z,31.50
2024-01-05T21:14:11.831Z,28.50
2024-01-05T21:16:41.284Z,33.00
2024-01-05T21:19:10.029Z,28.50
2024-01-05T21:21:47.092Z,27.00
2024-01-05T21:24:15.282Z,29.00
2024-01-05T21:26:46.223Z,29.00
2024-01-05T21:29:16.973Z,29.50
2024-01-05T21:31:48.915Z,30.00
2024-01-05T21:36:46.374Z,29.00
2024-01-05T21:39:18.253Z,31.00
2024-01-05T21:41:48.169Z,34.00
2024-01-05T21:44:20.120Z,32.50
2024-01-05T21:46:50.456Z,29.50
2024-01-05T21:49:20.523Z,33.00
2024-01-05T21:51:51.229Z,33.00
2024-01-05T21:54:19.461Z,33.00
2024-01-05T21:56:48.421Z,31.00
2024-01-05T21:59:16.503Z,33.00
2024-01-05T22:01:48.513Z,32.00
2024-01-05T22:04:16.908Z,29.00
2024-01-05T22:06:45.339Z,34.00
2024-01-05T22:09:14.078Z,30.00
2024-01-05T22:11:45.542Z,33.00
2024-01-05T22:16:43.045Z,31.50
2024-01-05T22:19:11.503Z,28.00
2024-01-05T22:21:42.330Z,30.00
2024-01-05T22:24:10.406Z,33.00
2024-01-05T22:26:38.384Z,32.00
2024-01-05T22:31:35.001Z,30.00
2024-01-05T22:34:03.380Z,30.67
2024-01-05T22:36:31.599Z,29.00
2024-01-05T22:38:59.789Z,28.00
2024-01-05T22:41:27.984Z,30.00
2024-01-05T22:43:57.095Z,29.00
2024-01-05T22:46:25.193Z,28.00
2024-01-05T22:48:53.681Z,30.50
2024-01-05T22:51:30.227Z,29.50
2024-01-05T22:53:58.569Z,31.00
2024-01-05T22:56:26.587Z,31.00
2024-01-05T22:58:54.677Z,31.00
2024-01-05T23:01:24.093Z,33.00
2024-01-05T23:03:53.502Z,28.50
2024-01-05T23:06:24.123Z,32.00
2024-01-05T23:08:52.256Z,31.00
2024-01-05T23:11:20.445Z,29.00
2024-01-05T23:13:48.734Z,28.00
2024-01-05T23:18:44.744Z,30.00
2024-01-05T23:21:12.994Z,27.00
2024-01-05T23:23:41.144Z,32.00
2024-01-05T23:26:20.293Z,28.50
2024-01-05T23:28:50.724Z,30.00
2024-01-05T23:31:19.079Z,29.00
2024-01-05T23:34:03.711Z,28.00
2024-01-05T23:36:37.238Z,27.00
2024-01-05T23:39:05.714Z,30.00
2024-01-05T23:41:33.867Z,27.00
2024-01-05T23:44:01.832Z,28.00
2024-01-05T23:46:29.863Z,27.00
2024-01-05T23:48:57.872Z,24.67
2024-01-05T23:51:26.130Z,21.00
2024-01-05T23:53:54.217Z,25.00
2024-01-05T23:56:22.688Z,29.00
2024-01-05T23:58:50.869Z,24.00
